sensor_id;sensor_type;location;lat;lon;timestamp;pressure;altitude;pressure_sealevel;temperature;humidity
36798;BME280;22748;8.426;99.512;2023-06-22T00:00:27;100772.56;;;30.08;62.24
36798;BME280;22748;8.426;99.512;2023-06-22T00:02:58;100769.28;;;30.06;62.31
36798;BME280;22748;8.426;99.512;2023-06-22T00:05:28;100777.34;;;30.06;62.63
36798;BME280;22748;8.426;99.512;2023-06-22T00:08:01;100775.66;;;30.11;62.25
36798;BME280;22748;8.426;99.512;2023-06-22T00:10:35;100783.53;;;30.13;62.18
36798;BME280;22748;8.426;99.512;2023-06-22T00:13:05;100788.88;;;30.20;62.07
36798;BME280;22748;8.426;99.512;2023-06-22T00:15:36;100790.16;;;30.10;62.43
36798;BME280;22748;8.426;99.512;2023-06-22T00:18:08;100781.47;;;30.08;62.24
36798;BME280;22748;8.426;99.512;2023-06-22T00:20:42;100784.78;;;30.10;62.56
36798;BME280;22748;8.426;99.512;2023-06-22T00:23:14;100789.72;;;30.13;62.13
36798;BME280;22748;8.426;99.512;2023-06-22T00:25:47;100787.25;;;30.19;61.92
36798;BME280;22748;8.426;99.512;2023-06-22T00:28:17;100779.97;;;30.19;61.80
36798;BME280;22748;8.426;99.512;2023-06-22T00:30:49;100780.19;;;30.18;62.24
36798;BME280;22748;8.426;99.512;2023-06-22T00:33:28;100780.84;;;30.13;62.30
36798;BME280;22748;8.426;99.512;2023-06-22T00:36:00;100784.78;;;30.10;62.53
36798;BME280;22748;8.426;99.512;2023-06-22T00:38:30;100785.81;;;30.09;62.90
36798;BME280;22748;8.426;99.512;2023-06-22T00:41:04;100785.81;;;30.09;62.70
36798;BME280;22748;8.426;99.512;2023-06-22T00:43:35;100778.75;;;30.15;62.74
36798;BME280;22748;8.426;99.512;2023-06-22T00:46:06;100791.56;;;30.20;62.67
36798;BME280;22748;8.426;99.512;2023-06-22T00:48:37;100789.91;;;30.25;62.65
36798;BME280;22748;8.426;99.512;2023-06-22T00:51:10;100792.44;;;30.13;62.78
36798;BME280;22748;8.426;99.512;2023-06-22T00:53:42;100794.09;;;30.14;62.85
36798;BME280;22748;8.426;99.512;2023-06-22T00:56:16;100801.13;;;30.15;63.20
36798;BME280;22748;8.426;99.512;2023-06-22T00:58:48;100799.47;;;30.14;63.29
36798;BME280;22748;8.426;99.512;2023-06-22T01:01:21;100802.41;;;30.06;63.34
36798;BME280;22748;8.426;99.512;2023-06-22T01:03:52;100797.63;;;30.08;63.42
36798;BME280;22748;8.426;99.512;2023-06-22T01:06:32;100801.13;;;30.15;63.21
36798;BME280;22748;8.426;99.512;2023-06-22T01:09:13;100811.88;;;30.22;63.33
36798;BME280;22748;8.426;99.512;2023-06-22T01:11:53;100814.75;;;30.27;63.23
36798;BME280;22748;8.426;99.512;2023-06-22T01:14:31;100817.88;;;30.31;62.87
36798;BME280;22748;8.426;99.512;2023-06-22T01:17:08;100818.06;;;30.36;63.25
36798;BME280;22748;8.426;99.512;2023-06-22T01:19:45;100828.19;;;30.41;62.81
36798;BME280;22748;8.426;99.512;2023-06-22T01:22:17;100829.19;;;30.46;62.90
36798;BME280;22748;8.426;99.512;2023-06-22T01:24:57;100822.34;;;30.50;62.94
36798;BME280;22748;8.426;99.512;2023-06-22T01:27:47;100828.13;;;30.54;62.67
36798;BME280;22748;8.426;99.512;2023-06-22T01:30:26;100830.78;;;30.61;62.61
36798;BME280;22748;8.426;99.512;2023-06-22T01:32:59;100832.22;;;30.63;62.41
36798;BME280;22748;8.426;99.512;2023-06-22T01:35:31;100833.63;;;30.72;62.41
36798;BME280;22748;8.426;99.512;2023-06-22T01:38:06;100834.47;;;30.73;62.27
36798;BME280;22748;8.426;99.512;2023-06-22T01:40:38;100820.38;;;30.71;62.06
36798;BME280;22748;8.426;99.512;2023-06-22T01:43:09;100832.38;;;30.75;61.85
36798;BME280;22748;8.426;99.512;2023-06-22T01:45:42;100828.63;;;30.76;62.32
36798;BME280;22748;8.426;99.512;2023-06-22T01:48:12;100831.94;;;30.78;61.81
36798;BME280;22748;8.426;99.512;2023-06-22T01:50:51;100828.78;;;30.81;61.65
36798;BME280;22748;8.426;99.512;2023-06-22T01:53:22;100829.84;;;30.80;61.70
36798;BME280;22748;8.426;99.512;2023-06-22T01:55:53;100830.47;;;30.82;61.41
36798;BME280;22748;8.426;99.512;2023-06-22T01:58:25;100828.19;;;30.86;61.25
36798;BME280;22748;8.426;99.512;2023-06-22T02:01:00;100829.19;;;30.91;61.13
36798;BME280;22748;8.426;99.512;2023-06-22T02:03:38;100833.91;;;30.96;61.14
36798;BME280;22748;8.426;99.512;2023-06-22T02:06:17;100835.13;;;31.00;60.63
36798;BME280;22748;8.426;99.512;2023-06-22T02:08:57;100835.13;;;31.00;60.68
36798;BME280;22748;8.426;99.512;2023-06-22T02:11:38;100834.91;;;31.02;61.06
36798;BME280;22748;8.426;99.512;2023-06-22T02:14:12;100829.69;;;31.07;60.89
36798;BME280;22748;8.426;99.512;2023-06-22T02:16:47;100829.63;;;31.13;59.69
36798;BME280;22748;8.426;99.512;2023-06-22T02:19:23;100824.91;;;31.09;60.00
36798;BME280;22748;8.426;99.512;2023-06-22T02:21:54;100825.91;;;31.14;59.90
36798;BME280;22748;8.426;99.512;2023-06-22T02:24:25;100826.88;;;31.20;59.81
36798;BME280;22748;8.426;99.512;2023-06-22T02:26:59;100827.50;;;31.22;59.61
36798;BME280;22748;8.426;99.512;2023-06-22T02:29:31;100826.22;;;31.25;59.42
36798;BME280;22748;8.426;99.512;2023-06-22T02:32:03;100828.69;;;31.26;58.80
36798;BME280;22748;8.426;99.512;2023-06-22T02:34:35;100829.56;;;31.20;58.70
36798;BME280;22748;8.426;99.512;2023-06-22T02:37:07;100828.50;;;31.28;58.81
36798;BME280;22748;8.426;99.512;2023-06-22T02:39:39;100826.16;;;31.31;58.93
36798;BME280;22748;8.426;99.512;2023-06-22T02:42:10;100829.72;;;31.32;58.65
36798;BME280;22748;8.426;99.512;2023-06-22T02:44:41;100828.28;;;31.29;58.23
36798;BME280;22748;8.426;99.512;2023-06-22T02:47:15;100822.22;;;31.34;58.24
36798;BME280;22748;8.426;99.512;2023-06-22T02:49:47;100825.06;;;31.39;58.16
36798;BME280;22748;8.426;99.512;2023-06-22T02:52:17;100818.59;;;31.47;57.97
36798;BME280;22748;8.426;99.512;2023-06-22T02:54:48;100827.31;;;31.49;57.67
36798;BME280;22748;8.426;99.512;2023-06-22T02:57:19;100826.25;;;31.50;56.90
36798;BME280;22748;8.426;99.512;2023-06-22T02:59:50;100814.38;;;31.51;55.88
36798;BME280;22748;8.426;99.512;2023-06-22T03:02:21;100820.25;;;31.48;55.92
36798;BME280;22748;8.426;99.512;2023-06-22T03:04:55;100815.00;;;31.53;54.92
36798;BME280;22748;8.426;99.512;2023-06-22T03:07:25;100815.59;;;31.55;54.38
36798;BME280;22748;8.426;99.512;2023-06-22T03:09:58;100813.50;;;31.57;54.62
36798;BME280;22748;8.426;99.512;2023-06-22T03:12:30;100805.25;;;31.52;53.55
36798;BME280;22748;8.426;99.512;2023-06-22T03:15:01;100800.47;;;31.54;54.00
36798;BME280;22748;8.426;99.512;2023-06-22T03:17:36;100808.94;;;31.58;52.98
36798;BME280;22748;8.426;99.512;2023-06-22T03:20:09;100806.91;;;31.53;51.50
36798;BME280;22748;8.426;99.512;2023-06-22T03:22:41;100808.50;;;31.61;51.42
36798;BME280;22748;8.426;99.512;2023-06-22T03:25:13;100809.25;;;31.68;52.37
36798;BME280;22748;8.426;99.512;2023-06-22T03:27:43;100807.97;;;31.70;52.01
36798;BME280;22748;8.426;99.512;2023-06-22T03:30:15;100802.94;;;31.74;51.67
36798;BME280;22748;8.426;99.512;2023-06-22T03:32:48;100804.16;;;31.78;51.89
36798;BME280;22748;8.426;99.512;2023-06-22T03:35:19;100804.38;;;31.76;52.13
36798;BME280;22748;8.426;99.512;2023-06-22T03:37:51;100805.78;;;31.79;52.00
36798;BME280;22748;8.426;99.512;2023-06-22T03:40:22;100810.75;;;31.82;51.81
36798;BME280;22748;8.426;99.512;2023-06-22T03:42:53;100805.16;;;31.84;51.54
36798;BME280;22748;8.426;99.512;2023-06-22T03:45:22;100803.00;;;31.86;51.17
36798;BME280;22748;8.426;99.512;2023-06-22T03:47:59;100811.50;;;31.89;50.59
36798;BME280;22748;8.426;99.512;2023-06-22T03:50:31;100801.53;;;31.90;50.29
36798;BME280;22748;8.426;99.512;2023-06-22T03:53:03;100805.88;;;31.91;50.43
36798;BME280;22748;8.426;99.512;2023-06-22T03:55:40;100795.69;;;31.93;50.69
36798;BME280;22748;8.426;99.512;2023-06-22T03:58:11;100792.38;;;31.91;50.76
36798;BME280;22748;8.426;99.512;2023-06-22T04:00:42;100791.09;;;31.93;50.60
36798;BME280;22748;8.426;99.512;2023-06-22T04:03:21;100802.72;;;31.94;51.02
36798;BME280;22748;8.426;99.512;2023-06-22T04:05:55;100800.63;;;31.96;49.54
36798;BME280;22748;8.426;99.512;2023-06-22T04:08:26;100800.22;;;31.99;49.91
36798;BME280;22748;8.426;99.512;2023-06-22T04:10:57;100798.69;;;32.03;49.37
36798;BME280;22748;8.426;99.512;2023-06-22T04:13:28;100798.38;;;32.11;49.71
36798;BME280;22748;8.426;99.512;2023-06-22T04:15:59;100783.84;;;32.12;49.57
36798;BME280;22748;8.426;99.512;2023-06-22T04:18:49;100779.63;;;32.16;47.58
36798;BME280;22748;8.426;99.512;2023-06-22T04:21:20;100769.66;;;32.17;47.01
36798;BME280;22748;8.426;99.512;2023-06-22T04:23:51;100763.69;;;32.27;47.05
36798;BME280;22748;8.426;99.512;2023-06-22T04:26:22;100769.00;;;32.33;46.73
36798;BME280;22748;8.426;99.512;2023-06-22T04:28:54;100759.63;;;32.36;46.93
36798;BME280;22748;8.426;99.512;2023-06-22T04:31:25;100755.53;;;32.45;47.15
36798;BME280;22748;8.426;99.512;2023-06-22T04:34:02;100755.25;;;32.53;47.09
36798;BME280;22748;8.426;99.512;2023-06-22T04:36:38;100748.78;;;32.54;47.21
36798;BME280;22748;8.426;99.512;2023-06-22T04:39:09;100733.16;;;32.56;46.74
36798;BME280;22748;8.426;99.512;2023-06-22T04:41:40;100728.31;;;32.58;47.33
36798;BME280;22748;8.426;99.512;2023-06-22T04:44:12;100719.16;;;32.59;48.05
36798;BME280;22748;8.426;99.512;2023-06-22T04:46:53;100713.28;;;32.63;47.76
36798;BME280;22748;8.426;99.512;2023-06-22T04:49:29;100712.09;;;32.58;47.52
36798;BME280;22748;8.426;99.512;2023-06-22T04:52:05;100711.03;;;32.59;47.32
36798;BME280;22748;8.426;99.512;2023-06-22T04:54:36;100700.81;;;32.62;48.01
36798;BME280;22748;8.426;99.512;2023-06-22T04:57:07;100693.78;;;32.61;48.04
36798;BME280;22748;8.426;99.512;2023-06-22T04:59:40;100687.56;;;32.60;47.92
36798;BME280;22748;8.426;99.512;2023-06-22T05:02:11;100693.44;;;32.69;47.29
36798;BME280;22748;8.426;99.512;2023-06-22T05:04:43;100688.03;;;32.81;47.13
36798;BME280;22748;8.426;99.512;2023-06-22T05:07:18;100689.81;;;32.87;47.58
36798;BME280;22748;8.426;99.512;2023-06-22T05:09:52;100693.91;;;32.89;46.92
36798;BME280;22748;8.426;99.512;2023-06-22T05:12:25;100684.88;;;32.95;46.47
36798;BME280;22748;8.426;99.512;2023-06-22T05:14:56;100681.34;;;32.95;47.48
36798;BME280;22748;8.426;99.512;2023-06-22T05:17:27;100679.44;;;32.95;46.46
36798;BME280;22748;8.426;99.512;2023-06-22T05:19:59;100672.97;;;32.96;46.99
36798;BME280;22748;8.426;99.512;2023-06-22T05:22:30;100670.03;;;32.98;47.14
36798;BME280;22748;8.426;99.512;2023-06-22T05:25:00;100667.69;;;33.02;46.69
36798;BME280;22748;8.426;99.512;2023-06-22T05:27:31;100656.28;;;32.99;47.63
36798;BME280;22748;8.426;99.512;2023-06-22T05:30:03;100647.69;;;33.03;46.88
36798;BME280;22748;8.426;99.512;2023-06-22T05:32:34;100639.69;;;33.08;46.67
36798;BME280;22748;8.426;99.512;2023-06-22T05:35:13;100639.34;;;33.16;46.48
36798;BME280;22748;8.426;99.512;2023-06-22T05:37:44;100639.47;;;33.21;46.30
36798;BME280;22748;8.426;99.512;2023-06-22T05:40:16;100631.94;;;33.23;45.83
36798;BME280;22748;8.426;99.512;2023-06-22T05:42:48;100633.06;;;33.27;46.00
36798;BME280;22748;8.426;99.512;2023-06-22T05:45:18;100625.31;;;33.31;45.75
36798;BME280;22748;8.426;99.512;2023-06-22T05:47:56;100631.66;;;33.25;45.44
36798;BME280;22748;8.426;99.512;2023-06-22T05:50:33;100624.84;;;33.22;45.73
36798;BME280;22748;8.426;99.512;2023-06-22T05:53:04;100622.81;;;33.29;45.38
36798;BME280;22748;8.426;99.512;2023-06-22T05:55:36;100615.88;;;33.33;45.22
36798;BME280;22748;8.426;99.512;2023-06-22T05:58:07;100616.94;;;33.32;45.69
36798;BME280;22748;8.426;99.512;2023-06-22T06:00:37;100614.25;;;33.32;45.63
36798;BME280;22748;8.426;99.512;2023-06-22T06:03:09;100612.13;;;33.34;45.80
36798;BME280;22748;8.426;99.512;2023-06-22T06:05:47;100607.53;;;33.35;45.97
36798;BME280;22748;8.426;99.512;2023-06-22T06:08:18;100607.88;;;33.38;45.60
36798;BME280;22748;8.426;99.512;2023-06-22T06:10:50;100596.06;;;33.45;45.40
36798;BME280;22748;8.426;99.512;2023-06-22T06:13:23;100585.22;;;33.45;44.79
36798;BME280;22748;8.426;99.512;2023-06-22T06:15:58;100585.59;;;33.48;45.01
36798;BME280;22748;8.426;99.512;2023-06-22T06:18:29;100581.81;;;33.49;45.26
36798;BME280;22748;8.426;99.512;2023-06-22T06:21:02;100572.28;;;33.47;45.32
36798;BME280;22748;8.426;99.512;2023-06-22T06:23:33;100572.63;;;33.50;45.44
36798;BME280;22748;8.426;99.512;2023-06-22T06:26:03;100565.44;;;33.56;45.75
36798;BME280;22748;8.426;99.512;2023-06-22T06:28:35;100562.03;;;33.60;45.72
36798;BME280;22748;8.426;99.512;2023-06-22T06:31:06;100554.81;;;33.66;45.98
36798;BME280;22748;8.426;99.512;2023-06-22T06:33:41;100551.03;;;33.67;45.89
36798;BME280;22748;8.426;99.512;2023-06-22T06:36:15;100548.91;;;33.69;45.62
36798;BME280;22748;8.426;99.512;2023-06-22T06:38:46;100543.34;;;33.76;45.65
36798;BME280;22748;8.426;99.512;2023-06-22T06:41:17;100543.06;;;33.77;45.89
36798;BME280;22748;8.426;99.512;2023-06-22T06:43:49;100537.75;;;33.83;46.06
36798;BME280;22748;8.426;99.512;2023-06-22T06:46:20;100535.63;;;33.85;46.04
36798;BME280;22748;8.426;99.512;2023-06-22T06:48:52;100531.38;;;33.89;45.66
36798;BME280;22748;8.426;99.512;2023-06-22T06:51:25;100524.41;;;33.93;45.52
36798;BME280;22748;8.426;99.512;2023-06-22T06:53:56;100508.78;;;34.00;45.67
36798;BME280;22748;8.426;99.512;2023-06-22T06:56:28;100501.81;;;34.04;45.82
36798;BME280;22748;8.426;99.512;2023-06-22T06:59:01;100499.69;;;34.06;45.65
36798;BME280;22748;8.426;99.512;2023-06-22T07:01:38;100502.97;;;34.08;45.27
36798;BME280;22748;8.426;99.512;2023-06-22T07:04:07;100488.94;;;34.11;44.47
36798;BME280;22748;8.426;99.512;2023-06-22T07:06:39;100477.84;;;34.13;44.60
36798;BME280;22748;8.426;99.512;2023-06-22T07:09:10;100484.09;;;34.13;44.47
36798;BME280;22748;8.426;99.512;2023-06-22T07:11:40;100476.19;;;34.12;44.23
36798;BME280;22748;8.426;99.512;2023-06-22T07:14:11;100480.06;;;34.16;43.93
36798;BME280;22748;8.426;99.512;2023-06-22T07:16:43;100481.72;;;34.17;44.73
36798;BME280;22748;8.426;99.512;2023-06-22T07:19:14;100472.75;;;34.16;44.09
36798;BME280;22748;8.426;99.512;2023-06-22T07:21:45;100474.97;;;34.19;44.18
36798;BME280;22748;8.426;99.512;2023-06-22T07:24:16;100473.41;;;34.24;43.97
36798;BME280;22748;8.426;99.512;2023-06-22T07:26:48;100471.25;;;34.26;44.43
36798;BME280;22748;8.426;99.512;2023-06-22T07:29:19;100465.56;;;34.27;43.96
36798;BME280;22748;8.426;99.512;2023-06-22T07:31:50;100464.00;;;34.31;43.78
36798;BME280;22748;8.426;99.512;2023-06-22T07:34:23;100455.06;;;34.31;43.03
36798;BME280;22748;8.426;99.512;2023-06-22T07:36:55;100455.63;;;34.33;42.58
36798;BME280;22748;8.426;99.512;2023-06-22T07:39:26;100449.13;;;34.34;43.53
36798;BME280;22748;8.426;99.512;2023-06-22T07:41:56;100442.31;;;34.31;41.72
36798;BME280;22748;8.426;99.512;2023-06-22T07:44:26;100433.13;;;34.32;42.04
36798;BME280;22748;8.426;99.512;2023-06-22T07:46:57;100428.53;;;34.33;42.88
36798;BME280;22748;8.426;99.512;2023-06-22T07:49:30;100425.56;;;34.34;42.94
36798;BME280;22748;8.426;99.512;2023-06-22T07:52:02;100420.44;;;34.38;42.94
36798;BME280;22748;8.426;99.512;2023-06-22T07:54:35;100418.31;;;34.40;42.49
36798;BME280;22748;8.426;99.512;2023-06-22T07:57:07;100403.13;;;34.39;42.05
36798;BME280;22748;8.426;99.512;2023-06-22T07:59:38;100396.13;;;34.43;42.13
36798;BME280;22748;8.426;99.512;2023-06-22T08:02:08;100394.00;;;34.45;41.88
36798;BME280;22748;8.426;99.512;2023-06-22T08:04:40;100395.66;;;34.51;41.74
36798;BME280;22748;8.426;99.512;2023-06-22T08:07:12;100390.00;;;34.53;42.57
36798;BME280;22748;8.426;99.512;2023-06-22T08:09:48;100383.75;;;34.52;42.66
36798;BME280;22748;8.426;99.512;2023-06-22T08:12:20;100394.09;;;34.55;41.91
36798;BME280;22748;8.426;99.512;2023-06-22T08:14:50;100381.09;;;34.57;41.40
36798;BME280;22748;8.426;99.512;2023-06-22T08:17:20;100369.75;;;34.60;41.70
36798;BME280;22748;8.426;99.512;2023-06-22T08:19:50;100376.00;;;34.61;42.27
36798;BME280;22748;8.426;99.512;2023-06-22T08:22:26;100366.56;;;34.64;42.45
36798;BME280;22748;8.426;99.512;2023-06-22T08:24:59;100356.28;;;34.66;42.31
36798;BME280;22748;8.426;99.512;2023-06-22T08:27:31;100360.03;;;34.65;43.09
36798;BME280;22748;8.426;99.512;2023-06-22T08:30:01;100358.97;;;34.66;42.75
36798;BME280;22748;8.426;99.512;2023-06-22T08:32:32;100356.88;;;34.73;42.17
36798;BME280;22748;8.426;99.512;2023-06-22T08:35:04;100353.56;;;34.66;41.52
36798;BME280;22748;8.426;99.512;2023-06-22T08:37:39;100348.19;;;34.71;41.82
36798;BME280;22748;8.426;99.512;2023-06-22T08:40:11;100341.72;;;34.77;41.99
36798;BME280;22748;8.426;99.512;2023-06-22T08:42:42;100351.56;;;34.83;41.56
36798;BME280;22748;8.426;99.512;2023-06-22T08:45:14;100345.03;;;34.84;42.19
36798;BME280;22748;8.426;99.512;2023-06-22T08:47:48;100346.13;;;34.83;41.07
36798;BME280;22748;8.426;99.512;2023-06-22T08:50:19;100350.78;;;34.88;40.80
36798;BME280;22748;8.426;99.512;2023-06-22T08:52:52;100346.19;;;34.88;41.32
36798;BME280;22748;8.426;99.512;2023-06-22T08:55:24;100350.53;;;34.89;40.85
36798;BME280;22748;8.426;99.512;2023-06-22T08:57:55;100348.66;;;34.90;40.86
36798;BME280;22748;8.426;99.512;2023-06-22T09:00:26;100349.72;;;34.89;39.50
36798;BME280;22748;8.426;99.512;2023-06-22T09:03:02;100345.63;;;34.86;39.24
36798;BME280;22748;8.426;99.512;2023-06-22T09:05:34;100348.88;;;34.88;38.58
36798;BME280;22748;8.426;99.512;2023-06-22T09:08:07;100342.44;;;34.94;38.32
36798;BME280;22748;8.426;99.512;2023-06-22T09:10:38;100341.94;;;34.97;37.93
36798;BME280;22748;8.426;99.512;2023-06-22T09:13:08;100345.19;;;34.99;38.05
36798;BME280;22748;8.426;99.512;2023-06-22T09:15:40;100343.03;;;35.01;38.56
36798;BME280;22748;8.426;99.512;2023-06-22T09:18:11;100339.75;;;34.99;38.50
36798;BME280;22748;8.426;99.512;2023-06-22T09:20:42;100336.50;;;34.97;37.98
36798;BME280;22748;8.426;99.512;2023-06-22T09:23:15;100334.88;;;34.96;38.24
36798;BME280;22748;8.426;99.512;2023-06-22T09:25:46;100335.44;;;34.98;38.19
36798;BME280;22748;8.426;99.512;2023-06-22T09:28:17;100332.72;;;34.98;38.63
36798;BME280;22748;8.426;99.512;2023-06-22T09:30:48;100336.25;;;34.99;39.19
36798;BME280;22748;8.426;99.512;2023-06-22T09:33:20;100336.97;;;34.89;39.90
36798;BME280;22748;8.426;99.512;2023-06-22T09:35:51;100338.88;;;34.89;39.67
36798;BME280;22748;8.426;99.512;2023-06-22T09:38:37;100331.47;;;34.84;38.57
36798;BME280;22748;8.426;99.512;2023-06-22T09:41:09;100336.34;;;34.82;39.14
36798;BME280;22748;8.426;99.512;2023-06-22T09:43:40;100330.09;;;34.81;39.24
36798;BME280;22748;8.426;99.512;2023-06-22T09:46:11;100335.28;;;34.83;39.35
36798;BME280;22748;8.426;99.512;2023-06-22T09:48:43;100336.34;;;34.82;39.26
36798;BME280;22748;8.426;99.512;2023-06-22T09:51:13;100335.28;;;34.83;38.82
36798;BME280;22748;8.426;99.512;2023-06-22T09:53:46;100339.41;;;34.91;38.72
36798;BME280;22748;8.426;99.512;2023-06-22T09:56:18;100336.41;;;34.87;39.30
36798;BME280;22748;8.426;99.512;2023-06-22T09:58:49;100338.00;;;34.83;39.57
36798;BME280;22748;8.426;99.512;2023-06-22T10:01:21;100342.06;;;34.80;39.77
36798;BME280;22748;8.426;99.512;2023-06-22T10:03:53;100330.44;;;34.85;39.12
36798;BME280;22748;8.426;99.512;2023-06-22T10:06:25;100333.34;;;34.78;39.73
36798;BME280;22748;8.426;99.512;2023-06-22T10:08:58;100329.81;;;34.78;39.83
36798;BME280;22748;8.426;99.512;2023-06-22T10:11:29;100334.72;;;34.81;39.43
36798;BME280;22748;8.426;99.512;2023-06-22T10:14:00;100334.47;;;34.82;39.57
36798;BME280;22748;8.426;99.512;2023-06-22T10:16:36;100340.09;;;34.76;40.10
36798;BME280;22748;8.426;99.512;2023-06-22T10:19:09;100337.41;;;34.76;40.31
36798;BME280;22748;8.426;99.512;2023-06-22T10:21:41;100334.72;;;34.81;40.50
36798;BME280;22748;8.426;99.512;2023-06-22T10:24:14;100330.44;;;34.85;39.80
36798;BME280;22748;8.426;99.512;2023-06-22T10:26:44;100336.16;;;34.89;39.67
36798;BME280;22748;8.426;99.512;2023-06-22T10:29:14;100329.63;;;34.85;40.29
36798;BME280;22748;8.426;99.512;2023-06-22T10:31:50;100332.13;;;34.91;39.85
36798;BME280;22748;8.426;99.512;2023-06-22T10:34:21;100332.72;;;34.98;40.26
36798;BME280;22748;8.426;99.512;2023-06-22T10:36:53;100336.59;;;35.08;40.02
36798;BME280;22748;8.426;99.512;2023-06-22T10:39:28;100334.78;;;35.13;40.08
36798;BME280;22748;8.426;99.512;2023-06-22T10:41:59;100341.00;;;35.14;39.36
36798;BME280;22748;8.426;99.512;2023-06-22T10:44:32;100341.00;;;35.14;39.34
36798;BME280;22748;8.426;99.512;2023-06-22T10:47:03;100343.75;;;35.19;39.34
36798;BME280;22748;8.426;99.512;2023-06-22T10:49:34;100343.75;;;35.19;39.66
36798;BME280;22748;8.426;99.512;2023-06-22T10:52:06;100344.88;;;35.23;40.33
36798;BME280;22748;8.426;99.512;2023-06-22T10:54:39;100343.81;;;35.24;40.88
36798;BME280;22748;8.426;99.512;2023-06-22T10:57:11;100346.53;;;35.24;41.40
36798;BME280;22748;8.426;99.512;2023-06-22T10:59:42;100340.00;;;35.25;41.64
36798;BME280;22748;8.426;99.512;2023-06-22T11:02:20;100341.66;;;35.26;42.24
36798;BME280;22748;8.426;99.512;2023-06-22T11:04:57;100344.38;;;35.26;42.65
36798;BME280;22748;8.426;99.512;2023-06-22T11:07:29;100342.22;;;35.28;43.01
36798;BME280;22748;8.426;99.512;2023-06-22T11:10:05;100344.09;;;35.28;43.44
36798;BME280;22748;8.426;99.512;2023-06-22T11:12:36;100337.59;;;35.29;43.71
36798;BME280;22748;8.426;99.512;2023-06-22T11:15:09;100346.56;;;35.29;43.58
36798;BME280;22748;8.426;99.512;2023-06-22T11:17:40;100346.56;;;35.29;43.95
36798;BME280;22748;8.426;99.512;2023-06-22T11:20:12;100346.25;;;35.26;43.98
36798;BME280;22748;8.426;99.512;2023-06-22T11:22:44;100342.72;;;35.25;44.19
36798;BME280;22748;8.426;99.512;2023-06-22T11:25:17;100351.97;;;35.24;44.11
36798;BME280;22748;8.426;99.512;2023-06-22T11:27:47;100345.41;;;35.20;44.70
36798;BME280;22748;8.426;99.512;2023-06-22T11:30:20;100343.72;;;35.14;44.78
36798;BME280;22748;8.426;99.512;2023-06-22T11:36:15;100349.09;;;35.09;45.38
36798;BME280;22748;8.426;99.512;2023-06-22T11:38:46;100361.28;;;35.06;46.00
36798;BME280;22748;8.426;99.512;2023-06-22T11:41:20;100350.44;;;35.06;46.18
36798;BME280;22748;8.426;99.512;2023-06-22T11:43:51;100355.03;;;35.06;46.28
36798;BME280;22748;8.426;99.512;2023-06-22T11:46:23;100355.56;;;35.02;46.81
36798;BME280;22748;8.426;99.512;2023-06-22T11:48:54;100351.19;;;35.01;47.24
36798;BME280;22748;8.426;99.512;2023-06-22T11:51:26;100350.13;;;35.02;47.94
36798;BME280;22748;8.426;99.512;2023-06-22T11:54:00;100348.69;;;34.95;48.51
36798;BME280;22748;8.426;99.512;2023-06-22T11:56:33;100347.06;;;34.94;48.68
36798;BME280;22748;8.426;99.512;2023-06-22T11:59:05;100356.25;;;34.93;48.92
36798;BME280;22748;8.426;99.512;2023-06-22T12:01:36;100364.03;;;34.84;49.36
36798;BME280;22748;8.426;99.512;2023-06-22T12:04:07;100364.56;;;34.81;49.12
36798;BME280;22748;8.426;99.512;2023-06-22T12:06:39;100361.84;;;34.81;48.91
36798;BME280;22748;8.426;99.512;2023-06-22T12:09:12;100363.47;;;34.82;48.95
36798;BME280;22748;8.426;99.512;2023-06-22T12:11:46;100364.56;;;34.81;48.96
36798;BME280;22748;8.426;99.512;2023-06-22T12:14:23;100376.97;;;34.72;49.75
36798;BME280;22748;8.426;99.512;2023-06-22T12:16:55;100379.16;;;34.75;50.04
36798;BME280;22748;8.426;99.512;2023-06-22T12:19:32;100379.66;;;34.72;50.34
36798;BME280;22748;8.426;99.512;2023-06-22T12:22:08;100383.19;;;34.72;50.58
36798;BME280;22748;8.426;99.512;2023-06-22T12:24:39;100382.94;;;34.74;50.61
36798;BME280;22748;8.426;99.512;2023-06-22T12:27:11;100395.66;;;34.73;50.27
36798;BME280;22748;8.426;99.512;2023-06-22T12:29:44;100398.44;;;34.78;50.38
36798;BME280;22748;8.426;99.512;2023-06-22T12:32:17;100406.50;;;34.73;50.40
36798;BME280;22748;8.426;99.512;2023-06-22T12:34:47;100405.13;;;34.71;50.48
36798;BME280;22748;8.426;99.512;2023-06-22T12:37:19;100407.25;;;34.64;50.63
36798;BME280;22748;8.426;99.512;2023-06-22T12:39:50;100409.34;;;34.61;50.92
36798;BME280;22748;8.426;99.512;2023-06-22T12:42:22;100425.63;;;34.61;50.86
36798;BME280;22748;8.426;99.512;2023-06-22T12:44:54;100436.56;;;34.67;50.95
36798;BME280;22748;8.426;99.512;2023-06-22T12:47:27;100442.13;;;34.60;51.17
36798;BME280;22748;8.426;99.512;2023-06-22T12:49:58;100450.47;;;34.53;51.32
36798;BME280;22748;8.426;99.512;2023-06-22T12:52:30;100461.19;;;34.43;51.15
36798;BME280;22748;8.426;99.512;2023-06-22T12:55:01;100464.41;;;34.40;51.30
36798;BME280;22748;8.426;99.512;2023-06-22T12:57:34;100469.75;;;34.35;51.21
36798;BME280;22748;8.426;99.512;2023-06-22T13:00:05;100471.91;;;34.33;51.36
36798;BME280;22748;8.426;99.512;2023-06-22T13:02:37;100481.41;;;34.35;51.33
36798;BME280;22748;8.426;99.512;2023-06-22T13:05:09;100490.94;;;34.38;51.17
36798;BME280;22748;8.426;99.512;2023-06-22T13:07:39;100488.16;;;34.33;50.94
36798;BME280;22748;8.426;99.512;2023-06-22T13:10:10;100491.44;;;34.35;50.89
36798;BME280;22748;8.426;99.512;2023-06-22T13:12:42;100488.97;;;34.33;50.59
36798;BME280;22748;8.426;99.512;2023-06-22T13:15:13;100500.41;;;34.35;50.58
36798;BME280;22748;8.426;99.512;2023-06-22T13:17:44;100499.00;;;34.33;50.57
36798;BME280;22748;8.426;99.512;2023-06-22T13:20:15;100503.28;;;34.29;50.67